Nf67 Femarnbaelt II — OU3102 — position and weather

sailwx.info

Track history (hours):
 
Tides and Currents Weather Stations Pressure Air Temp Water Temp Dewpoint Dewpoint Depression Visibility Wind Speed Wind Dir Waves Ship Positions

Nf67 Femarnbaelt II

Last reported at 2016-Jul-24 08:32 UTC. Time now 2016-Jul-24 16:36 UTC.
Position N 57°43' E 010°13'.

Length 15 m.

Type: Fishing. MMSI: 219012459.

Date/timePositionNaut miles runAvg speedWind from/ knotsBaromVisibWave heightAir tempDewpointWater temp
2016-Jul-24 08:32N 57°43' E 010°13'6 2.9
2016-Jul-24 06:27N 57°45' E 010°23'1 0.8
2016-Jul-24 05:28N 57°45' E 010°25'4 2.8
2016-Jul-24 04:10N 57°45' E 010°18'2 2.8
2016-Jul-24 03:28N 57°45' E 010°14'4 0.2
2016-Jul-23 10:32N 57°43' E 010°21'4 3.8
2016-Jul-23 09:32N 57°45' E 010°27'3 2.5
2016-Jul-23 08:23N 57°45' E 010°21'3 2.9
2016-Jul-23 07:25N 57°45' E 010°16'16 0.4
2016-Jul-21 17:21N 57°39' E 009°49'  
Track history (hours):
 
Tides and Currents Weather Stations Pressure Air Temp Water Temp Dewpoint Dewpoint Depression Visibility Wind Speed Wind Dir Waves Ship Positions

Nf67 Femarnbaelt II

Last reported at 2016-Jul-24 08:32 UTC. Time now 2016-Jul-24 16:36 UTC.
Position N 57°43' E 010°13'.

Length 15 m.

Type: Fishing. MMSI: 219012459.

Date/timePositionNaut miles runAvg speedWind from/ knotsBaromVisibWave heightAir tempDewpointWater temp
2016-Jul-24 08:32N 57°43' E 010°13'6 2.9
2016-Jul-24 06:27N 57°45' E 010°23'1 0.8
2016-Jul-24 05:28N 57°45' E 010°25'4 2.8
2016-Jul-24 04:10N 57°45' E 010°18'2 2.8
2016-Jul-24 03:28N 57°45' E 010°14'4 0.2
2016-Jul-23 10:32N 57°43' E 010°21'4 3.8
2016-Jul-23 09:32N 57°45' E 010°27'3 2.5
2016-Jul-23 08:23N 57°45' E 010°21'3 2.9
2016-Jul-23 07:25N 57°45' E 010°16'16 0.4
2016-Jul-21 17:21N 57°39' E 009°49'  

Dump ship's entire track history